Terminal Aerodrome Forecast
Issued by NWS El Paso, TX

Home | Current Version | Previous Version | Text Only | Print | Product List | Glossary On
Versions: 1 2 3 4 5 6 7 8 9 10 11 12 13
000
FTUS44 KEPZ 270500
TAFELP
TAF
KELP 270537Z 2706/2806 09013KT P6SM FEW020 SCT150
     FM271000 04010KT P6SM SCT020 SCT150
     FM271800 09010KT P6SM SCT200
     FM280400 04008KT P6SM FEW030 SCT150 SCT250=

USA.gov is the U.S. government's official web portal to all federal, state and local government web resources and services.